sensor_id;sensor_type;location;lat;lon;timestamp;temperature;humidity
52034;DHT22;38045;52.988;6.536;2023-12-29T00:00:03;10.00;72.50
52034;DHT22;38045;52.988;6.536;2023-12-29T00:02:28;10.00;72.70
52034;DHT22;38045;52.988;6.536;2023-12-29T00:04:54;10.00;72.60
52034;DHT22;38045;52.988;6.536;2023-12-29T00:07:20;10.00;72.80
52034;DHT22;38045;52.988;6.536;2023-12-29T00:09:45;10.00;72.80
52034;DHT22;38045;52.988;6.536;2023-12-29T00:12:11;10.00;72.90
52034;DHT22;38045;52.988;6.536;2023-12-29T00:14:38;10.00;72.80
52034;DHT22;38045;52.988;6.536;2023-12-29T00:17:04;9.90;72.80
52034;DHT22;38045;52.988;6.536;2023-12-29T00:19:29;9.90;72.90
52034;DHT22;38045;52.988;6.536;2023-12-29T00:21:55;9.90;72.90
52034;DHT22;38045;52.988;6.536;2023-12-29T00:24:20;9.90;72.90
52034;DHT22;38045;52.988;6.536;2023-12-29T00:26:46;9.80;72.90
52034;DHT22;38045;52.988;6.536;2023-12-29T00:29:14;9.80;72.90
52034;DHT22;38045;52.988;6.536;2023-12-29T00:31:40;9.90;72.80
52034;DHT22;38045;52.988;6.536;2023-12-29T00:34:06;9.90;72.70
52034;DHT22;38045;52.988;6.536;2023-12-29T00:36:32;9.90;72.80
52034;DHT22;38045;52.988;6.536;2023-12-29T00:38:58;10.00;72.60
52034;DHT22;38045;52.988;6.536;2023-12-29T00:41:23;10.00;72.70
52034;DHT22;38045;52.988;6.536;2023-12-29T00:43:49;10.00;72.70
52034;DHT22;38045;52.988;6.536;2023-12-29T00:46:15;9.90;72.80
52034;DHT22;38045;52.988;6.536;2023-12-29T00:48:43;9.90;72.90
52034;DHT22;38045;52.988;6.536;2023-12-29T00:51:09;9.80;73.10
52034;DHT22;38045;52.988;6.536;2023-12-29T00:53:35;9.80;73.30
52034;DHT22;38045;52.988;6.536;2023-12-29T00:56:01;9.80;73.40
52034;DHT22;38045;52.988;6.536;2023-12-29T00:58:26;9.70;73.60
52034;DHT22;38045;52.988;6.536;2023-12-29T01:00:52;9.70;74.40
52034;DHT22;38045;52.988;6.536;2023-12-29T01:03:18;9.60;74.50
52034;DHT22;38045;52.988;6.536;2023-12-29T01:05:44;9.40;75.50
52034;DHT22;38045;52.988;6.536;2023-12-29T01:08:09;9.40;76.00
52034;DHT22;38045;52.988;6.536;2023-12-29T01:10:35;9.20;76.10
52034;DHT22;38045;52.988;6.536;2023-12-29T01:13:00;9.20;76.40
52034;DHT22;38045;52.988;6.536;2023-12-29T01:15:26;9.20;76.40
52034;DHT22;38045;52.988;6.536;2023-12-29T01:17:51;9.20;76.40
52034;DHT22;38045;52.988;6.536;2023-12-29T01:20:17;9.20;76.40
52034;DHT22;38045;52.988;6.536;2023-12-29T01:22:42;9.20;76.30
52034;DHT22;38045;52.988;6.536;2023-12-29T01:25:08;9.20;76.30
52034;DHT22;38045;52.988;6.536;2023-12-29T01:27:34;9.20;76.30
52034;DHT22;38045;52.988;6.536;2023-12-29T01:29:59;9.20;76.40
52034;DHT22;38045;52.988;6.536;2023-12-29T01:32:25;9.20;76.50
52034;DHT22;38045;52.988;6.536;2023-12-29T01:34:52;9.20;76.50
52034;DHT22;38045;52.988;6.536;2023-12-29T01:37:18;9.20;76.50
52034;DHT22;38045;52.988;6.536;2023-12-29T01:39:44;9.20;76.50
52034;DHT22;38045;52.988;6.536;2023-12-29T01:42:09;9.20;76.40
52034;DHT22;38045;52.988;6.536;2023-12-29T01:44:36;9.20;76.40
52034;DHT22;38045;52.988;6.536;2023-12-29T01:47:03;9.20;76.50
52034;DHT22;38045;52.988;6.536;2023-12-29T01:49:31;9.20;76.50
52034;DHT22;38045;52.988;6.536;2023-12-29T01:51:58;9.20;76.50
52034;DHT22;38045;52.988;6.536;2023-12-29T01:54:31;9.30;76.50
52034;DHT22;38045;52.988;6.536;2023-12-29T01:56:59;9.30;76.40
52034;DHT22;38045;52.988;6.536;2023-12-29T01:59:27;9.30;76.50
52034;DHT22;38045;52.988;6.536;2023-12-29T02:01:54;9.30;76.50
52034;DHT22;38045;52.988;6.536;2023-12-29T02:04:22;9.20;76.80
52034;DHT22;38045;52.988;6.536;2023-12-29T02:06:48;9.20;76.80
52034;DHT22;38045;52.988;6.536;2023-12-29T02:09:16;9.20;76.80
52034;DHT22;38045;52.988;6.536;2023-12-29T02:11:42;9.20;77.10
52034;DHT22;38045;52.988;6.536;2023-12-29T02:14:08;9.20;77.30
52034;DHT22;38045;52.988;6.536;2023-12-29T02:16:58;9.20;77.80
52034;DHT22;38045;52.988;6.536;2023-12-29T02:19:46;9.20;78.10
52034;DHT22;38045;52.988;6.536;2023-12-29T02:22:12;9.10;78.10
52034;DHT22;38045;52.988;6.536;2023-12-29T02:24:39;9.00;78.20
52034;DHT22;38045;52.988;6.536;2023-12-29T02:27:07;9.00;78.30
52034;DHT22;38045;52.988;6.536;2023-12-29T02:29:38;9.10;78.20
52034;DHT22;38045;52.988;6.536;2023-12-29T02:32:06;9.20;78.00
52034;DHT22;38045;52.988;6.536;2023-12-29T02:34:36;9.20;77.90
52034;DHT22;38045;52.988;6.536;2023-12-29T02:37:04;9.20;77.50
52034;DHT22;38045;52.988;6.536;2023-12-29T02:39:30;9.30;77.10
52034;DHT22;38045;52.988;6.536;2023-12-29T02:41:55;9.40;76.90
52034;DHT22;38045;52.988;6.536;2023-12-29T02:44:21;9.40;76.40
52034;DHT22;38045;52.988;6.536;2023-12-29T02:46:47;9.40;76.30
52034;DHT22;38045;52.988;6.536;2023-12-29T02:49:12;9.50;76.00
52034;DHT22;38045;52.988;6.536;2023-12-29T02:51:39;9.50;75.70
52034;DHT22;38045;52.988;6.536;2023-12-29T02:54:05;9.50;75.70
52034;DHT22;38045;52.988;6.536;2023-12-29T02:56:31;9.40;75.70
52034;DHT22;38045;52.988;6.536;2023-12-29T02:58:57;9.40;75.50
52034;DHT22;38045;52.988;6.536;2023-12-29T03:01:22;9.40;75.50
52034;DHT22;38045;52.988;6.536;2023-12-29T03:03:48;9.40;75.50
52034;DHT22;38045;52.988;6.536;2023-12-29T03:06:13;9.40;75.20
52034;DHT22;38045;52.988;6.536;2023-12-29T03:08:39;9.40;75.30
52034;DHT22;38045;52.988;6.536;2023-12-29T03:11:04;9.50;75.30
52034;DHT22;38045;52.988;6.536;2023-12-29T03:13:30;9.50;75.30
52034;DHT22;38045;52.988;6.536;2023-12-29T03:15:55;9.50;75.20
52034;DHT22;38045;52.988;6.536;2023-12-29T03:18:21;9.50;75.00
52034;DHT22;38045;52.988;6.536;2023-12-29T03:20:47;9.50;75.10
52034;DHT22;38045;52.988;6.536;2023-12-29T03:23:12;9.60;75.00
52034;DHT22;38045;52.988;6.536;2023-12-29T03:25:38;9.60;75.10
52034;DHT22;38045;52.988;6.536;2023-12-29T03:28:04;9.50;75.30
52034;DHT22;38045;52.988;6.536;2023-12-29T03:30:29;9.50;75.40
52034;DHT22;38045;52.988;6.536;2023-12-29T03:32:55;9.50;75.40
52034;DHT22;38045;52.988;6.536;2023-12-29T03:35:20;9.50;75.40
52034;DHT22;38045;52.988;6.536;2023-12-29T03:37:46;9.50;75.50
52034;DHT22;38045;52.988;6.536;2023-12-29T03:40:11;9.50;75.60
52034;DHT22;38045;52.988;6.536;2023-12-29T03:42:38;9.40;75.80
52034;DHT22;38045;52.988;6.536;2023-12-29T03:45:04;9.50;74.40
52034;DHT22;38045;52.988;6.536;2023-12-29T03:47:30;9.60;74.10
52034;DHT22;38045;52.988;6.536;2023-12-29T03:49:57;9.60;73.90
52034;DHT22;38045;52.988;6.536;2023-12-29T03:52:23;9.60;74.00
52034;DHT22;38045;52.988;6.536;2023-12-29T03:54:48;9.60;73.90
52034;DHT22;38045;52.988;6.536;2023-12-29T03:57:14;9.60;74.00
52034;DHT22;38045;52.988;6.536;2023-12-29T03:59:40;9.50;74.20
52034;DHT22;38045;52.988;6.536;2023-12-29T04:02:05;9.50;74.10
52034;DHT22;38045;52.988;6.536;2023-12-29T04:04:31;9.50;73.80
52034;DHT22;38045;52.988;6.536;2023-12-29T04:06:57;9.50;73.70
52034;DHT22;38045;52.988;6.536;2023-12-29T04:09:22;9.40;73.50
52034;DHT22;38045;52.988;6.536;2023-12-29T04:11:48;9.50;73.00
52034;DHT22;38045;52.988;6.536;2023-12-29T04:14:14;9.50;72.80
52034;DHT22;38045;52.988;6.536;2023-12-29T04:16:40;9.50;72.90
52034;DHT22;38045;52.988;6.536;2023-12-29T04:19:05;9.50;73.10
52034;DHT22;38045;52.988;6.536;2023-12-29T04:21:31;9.50;73.10
52034;DHT22;38045;52.988;6.536;2023-12-29T04:23:56;9.50;73.00
52034;DHT22;38045;52.988;6.536;2023-12-29T04:26:22;9.40;73.20
52034;DHT22;38045;52.988;6.536;2023-12-29T04:28:48;9.40;73.10
52034;DHT22;38045;52.988;6.536;2023-12-29T04:31:13;9.40;73.30
52034;DHT22;38045;52.988;6.536;2023-12-29T04:33:39;9.30;73.40
52034;DHT22;38045;52.988;6.536;2023-12-29T04:36:05;9.30;73.60
52034;DHT22;38045;52.988;6.536;2023-12-29T04:38:30;9.20;73.80
52034;DHT22;38045;52.988;6.536;2023-12-29T04:40:56;9.20;73.90
52034;DHT22;38045;52.988;6.536;2023-12-29T04:43:22;9.20;74.00
52034;DHT22;38045;52.988;6.536;2023-12-29T04:45:47;9.20;74.30
52034;DHT22;38045;52.988;6.536;2023-12-29T04:48:13;9.20;74.50
52034;DHT22;38045;52.988;6.536;2023-12-29T04:50:38;9.20;74.50
52034;DHT22;38045;52.988;6.536;2023-12-29T04:53:04;9.20;74.50
52034;DHT22;38045;52.988;6.536;2023-12-29T04:55:30;9.20;74.40
52034;DHT22;38045;52.988;6.536;2023-12-29T04:57:55;9.20;74.40
52034;DHT22;38045;52.988;6.536;2023-12-29T05:00:21;9.20;74.00
52034;DHT22;38045;52.988;6.536;2023-12-29T05:02:46;9.20;73.70
52034;DHT22;38045;52.988;6.536;2023-12-29T05:05:12;9.20;73.00
52034;DHT22;38045;52.988;6.536;2023-12-29T05:07:37;9.20;72.80
52034;DHT22;38045;52.988;6.536;2023-12-29T05:10:03;9.30;72.50
52034;DHT22;38045;52.988;6.536;2023-12-29T05:12:29;9.30;72.30
52034;DHT22;38045;52.988;6.536;2023-12-29T05:14:55;9.40;72.00
52034;DHT22;38045;52.988;6.536;2023-12-29T05:17:21;9.40;71.60
52034;DHT22;38045;52.988;6.536;2023-12-29T05:19:46;9.30;70.70
52034;DHT22;38045;52.988;6.536;2023-12-29T05:22:12;9.40;70.20
52034;DHT22;38045;52.988;6.536;2023-12-29T05:24:41;9.40;69.70
52034;DHT22;38045;52.988;6.536;2023-12-29T05:27:07;9.40;69.70
52034;DHT22;38045;52.988;6.536;2023-12-29T05:29:33;9.40;68.80
52034;DHT22;38045;52.988;6.536;2023-12-29T05:31:58;9.50;68.60
52034;DHT22;38045;52.988;6.536;2023-12-29T05:34:24;9.50;68.60
52034;DHT22;38045;52.988;6.536;2023-12-29T05:36:49;9.50;67.90
52034;DHT22;38045;52.988;6.536;2023-12-29T05:39:15;9.50;67.80
52034;DHT22;38045;52.988;6.536;2023-12-29T05:41:41;9.60;67.50
52034;DHT22;38045;52.988;6.536;2023-12-29T05:44:06;9.50;67.70
52034;DHT22;38045;52.988;6.536;2023-12-29T05:46:32;9.50;67.90
52034;DHT22;38045;52.988;6.536;2023-12-29T05:48:58;9.50;67.60
52034;DHT22;38045;52.988;6.536;2023-12-29T05:51:24;9.50;67.60
52034;DHT22;38045;52.988;6.536;2023-12-29T05:53:50;9.50;67.60
52034;DHT22;38045;52.988;6.536;2023-12-29T05:56:15;9.50;67.30
52034;DHT22;38045;52.988;6.536;2023-12-29T05:58:41;9.50;67.30
52034;DHT22;38045;52.988;6.536;2023-12-29T06:01:08;9.50;67.30
52034;DHT22;38045;52.988;6.536;2023-12-29T06:03:34;9.50;67.30
52034;DHT22;38045;52.988;6.536;2023-12-29T06:06:00;9.50;67.40
52034;DHT22;38045;52.988;6.536;2023-12-29T06:08:25;9.50;67.40
52034;DHT22;38045;52.988;6.536;2023-12-29T06:10:51;9.50;67.20
52034;DHT22;38045;52.988;6.536;2023-12-29T06:13:17;9.40;67.30
52034;DHT22;38045;52.988;6.536;2023-12-29T06:15:42;9.40;67.70
52034;DHT22;38045;52.988;6.536;2023-12-29T06:18:08;9.40;67.90
52034;DHT22;38045;52.988;6.536;2023-12-29T06:20:34;9.30;68.00
52034;DHT22;38045;52.988;6.536;2023-12-29T06:23:00;9.20;68.20
52034;DHT22;38045;52.988;6.536;2023-12-29T06:25:26;9.20;68.50
52034;DHT22;38045;52.988;6.536;2023-12-29T06:27:53;9.30;68.90
52034;DHT22;38045;52.988;6.536;2023-12-29T06:30:20;9.20;69.40
52034;DHT22;38045;52.988;6.536;2023-12-29T06:32:45;9.20;69.70
52034;DHT22;38045;52.988;6.536;2023-12-29T06:35:11;9.20;70.40
52034;DHT22;38045;52.988;6.536;2023-12-29T06:37:37;9.20;70.40
52034;DHT22;38045;52.988;6.536;2023-12-29T06:40:05;9.20;70.70
52034;DHT22;38045;52.988;6.536;2023-12-29T06:42:31;9.20;71.10
52034;DHT22;38045;52.988;6.536;2023-12-29T06:44:57;9.10;71.30
52034;DHT22;38045;52.988;6.536;2023-12-29T06:47:22;9.10;71.50
52034;DHT22;38045;52.988;6.536;2023-12-29T06:49:48;9.10;71.60
52034;DHT22;38045;52.988;6.536;2023-12-29T06:52:14;9.20;71.90
52034;DHT22;38045;52.988;6.536;2023-12-29T06:54:39;9.20;71.90
52034;DHT22;38045;52.988;6.536;2023-12-29T06:57:06;9.20;72.20
52034;DHT22;38045;52.988;6.536;2023-12-29T06:59:32;9.10;72.30
52034;DHT22;38045;52.988;6.536;2023-12-29T07:01:57;9.10;72.50
52034;DHT22;38045;52.988;6.536;2023-12-29T07:04:23;9.00;72.70
52034;DHT22;38045;52.988;6.536;2023-12-29T07:06:49;9.00;73.10
52034;DHT22;38045;52.988;6.536;2023-12-29T07:09:14;9.00;73.00
52034;DHT22;38045;52.988;6.536;2023-12-29T07:11:40;9.00;73.20
52034;DHT22;38045;52.988;6.536;2023-12-29T07:14:06;9.00;73.20
52034;DHT22;38045;52.988;6.536;2023-12-29T07:16:31;9.00;73.50
52034;DHT22;38045;52.988;6.536;2023-12-29T07:18:57;9.00;73.60
52034;DHT22;38045;52.988;6.536;2023-12-29T07:21:22;9.00;73.50
52034;DHT22;38045;52.988;6.536;2023-12-29T07:23:48;9.10;73.40
52034;DHT22;38045;52.988;6.536;2023-12-29T07:26:14;9.10;73.40
52034;DHT22;38045;52.988;6.536;2023-12-29T07:28:39;9.10;73.50
52034;DHT22;38045;52.988;6.536;2023-12-29T07:31:05;9.10;73.50
52034;DHT22;38045;52.988;6.536;2023-12-29T07:33:31;9.10;73.40
52034;DHT22;38045;52.988;6.536;2023-12-29T07:35:56;9.10;73.50
52034;DHT22;38045;52.988;6.536;2023-12-29T07:38:23;9.20;73.20
52034;DHT22;38045;52.988;6.536;2023-12-29T07:40:48;9.20;73.30
52034;DHT22;38045;52.988;6.536;2023-12-29T07:43:14;9.20;73.10
52034;DHT22;38045;52.988;6.536;2023-12-29T07:45:40;9.20;73.00
52034;DHT22;38045;52.988;6.536;2023-12-29T07:48:06;9.20;73.10
52034;DHT22;38045;52.988;6.536;2023-12-29T07:50:31;9.20;73.30
52034;DHT22;38045;52.988;6.536;2023-12-29T07:52:57;9.20;73.50
52034;DHT22;38045;52.988;6.536;2023-12-29T07:55:23;9.20;73.60
52034;DHT22;38045;52.988;6.536;2023-12-29T07:57:48;9.10;73.70
52034;DHT22;38045;52.988;6.536;2023-12-29T08:00:15;9.10;73.70
52034;DHT22;38045;52.988;6.536;2023-12-29T08:02:41;9.10;73.40
52034;DHT22;38045;52.988;6.536;2023-12-29T08:05:06;9.20;73.20
52034;DHT22;38045;52.988;6.536;2023-12-29T08:07:36;9.20;73.20
52034;DHT22;38045;52.988;6.536;2023-12-29T08:10:07;9.30;73.10
52034;DHT22;38045;52.988;6.536;2023-12-29T08:12:33;9.40;73.20
52034;DHT22;38045;52.988;6.536;2023-12-29T08:14:59;9.20;73.40
52034;DHT22;38045;52.988;6.536;2023-12-29T08:17:25;9.20;73.50
52034;DHT22;38045;52.988;6.536;2023-12-29T08:19:51;9.20;73.80
52034;DHT22;38045;52.988;6.536;2023-12-29T08:22:17;9.20;74.30
52034;DHT22;38045;52.988;6.536;2023-12-29T08:24:43;9.00;74.70
52034;DHT22;38045;52.988;6.536;2023-12-29T08:27:09;9.10;74.70
52034;DHT22;38045;52.988;6.536;2023-12-29T08:29:35;9.20;74.70
52034;DHT22;38045;52.988;6.536;2023-12-29T08:32:01;9.20;74.50
52034;DHT22;38045;52.988;6.536;2023-12-29T08:34:27;9.20;74.60
52034;DHT22;38045;52.988;6.536;2023-12-29T08:36:53;9.20;74.30
52034;DHT22;38045;52.988;6.536;2023-12-29T08:39:18;9.20;74.40
52034;DHT22;38045;52.988;6.536;2023-12-29T08:41:44;9.20;74.70
52034;DHT22;38045;52.988;6.536;2023-12-29T08:44:10;9.20;74.60
52034;DHT22;38045;52.988;6.536;2023-12-29T08:46:35;9.20;74.90
52034;DHT22;38045;52.988;6.536;2023-12-29T08:49:01;9.10;75.00
52034;DHT22;38045;52.988;6.536;2023-12-29T08:51:27;9.10;75.20
52034;DHT22;38045;52.988;6.536;2023-12-29T08:53:52;9.10;75.30
52034;DHT22;38045;52.988;6.536;2023-12-29T08:56:18;9.10;75.20
52034;DHT22;38045;52.988;6.536;2023-12-29T08:58:43;9.10;75.00
52034;DHT22;38045;52.988;6.536;2023-12-29T09:01:09;9.00;74.80
52034;DHT22;38045;52.988;6.536;2023-12-29T09:03:35;9.00;74.80
52034;DHT22;38045;52.988;6.536;2023-12-29T09:06:00;9.00;75.10
52034;DHT22;38045;52.988;6.536;2023-12-29T09:08:27;9.00;75.20
52034;DHT22;38045;52.988;6.536;2023-12-29T09:10:52;9.00;75.40
52034;DHT22;38045;52.988;6.536;2023-12-29T09:13:18;9.00;75.70
52034;DHT22;38045;52.988;6.536;2023-12-29T09:15:48;9.00;74.80
52034;DHT22;38045;52.988;6.536;2023-12-29T09:18:13;9.00;73.90
52034;DHT22;38045;52.988;6.536;2023-12-29T09:20:39;9.00;73.80
52034;DHT22;38045;52.988;6.536;2023-12-29T09:23:05;8.90;73.70
52034;DHT22;38045;52.988;6.536;2023-12-29T09:25:30;8.90;73.40
52034;DHT22;38045;52.988;6.536;2023-12-29T09:27:56;8.90;73.60
52034;DHT22;38045;52.988;6.536;2023-12-29T09:30:22;9.00;73.70
52034;DHT22;38045;52.988;6.536;2023-12-29T09:32:47;9.10;73.50
52034;DHT22;38045;52.988;6.536;2023-12-29T09:35:13;9.20;73.70
52034;DHT22;38045;52.988;6.536;2023-12-29T09:37:38;9.20;74.00
52034;DHT22;38045;52.988;6.536;2023-12-29T09:40:04;9.30;74.00
52034;DHT22;38045;52.988;6.536;2023-12-29T09:42:31;9.30;74.20
52034;DHT22;38045;52.988;6.536;2023-12-29T09:44:57;9.30;74.40
52034;DHT22;38045;52.988;6.536;2023-12-29T09:47:27;9.30;74.60
52034;DHT22;38045;52.988;6.536;2023-12-29T09:49:53;9.30;74.60
52034;DHT22;38045;52.988;6.536;2023-12-29T09:52:20;9.30;74.80
52034;DHT22;38045;52.988;6.536;2023-12-29T09:54:48;9.40;74.80
52034;DHT22;38045;52.988;6.536;2023-12-29T09:57:15;9.40;74.80
52034;DHT22;38045;52.988;6.536;2023-12-29T09:59:42;9.40;74.80
52034;DHT22;38045;52.988;6.536;2023-12-29T10:02:14;9.40;74.60
52034;DHT22;38045;52.988;6.536;2023-12-29T10:04:41;9.40;74.60
52034;DHT22;38045;52.988;6.536;2023-12-29T10:07:08;9.40;74.70
52034;DHT22;38045;52.988;6.536;2023-12-29T10:09:37;9.40;74.60
52034;DHT22;38045;52.988;6.536;2023-12-29T10:12:04;9.40;74.70
52034;DHT22;38045;52.988;6.536;2023-12-29T10:14:48;9.40;74.80
52034;DHT22;38045;52.988;6.536;2023-12-29T10:20:45;9.40;75.00
52034;DHT22;38045;52.988;6.536;2023-12-29T10:23:22;9.40;75.10
52034;DHT22;38045;52.988;6.536;2023-12-29T10:25:52;9.50;75.00
52034;DHT22;38045;52.988;6.536;2023-12-29T10:28:18;9.50;75.00
52034;DHT22;38045;52.988;6.536;2023-12-29T10:30:44;9.50;74.50
52034;DHT22;38045;52.988;6.536;2023-12-29T10:33:09;9.50;74.30
52034;DHT22;38045;52.988;6.536;2023-12-29T10:35:38;9.50;74.50
52034;DHT22;38045;52.988;6.536;2023-12-29T10:38:11;9.60;74.30
52034;DHT22;38045;52.988;6.536;2023-12-29T10:40:37;9.60;73.90
52034;DHT22;38045;52.988;6.536;2023-12-29T10:43:03;9.60;73.60
52034;DHT22;38045;52.988;6.536;2023-12-29T10:45:33;9.70;73.00
52034;DHT22;38045;52.988;6.536;2023-12-29T10:48:00;9.70;73.10
52034;DHT22;38045;52.988;6.536;2023-12-29T10:50:26;9.70;73.10
52034;DHT22;38045;52.988;6.536;2023-12-29T10:53:13;9.70;72.30
52034;DHT22;38045;52.988;6.536;2023-12-29T10:55:39;9.70;72.70
52034;DHT22;38045;52.988;6.536;2023-12-29T10:58:05;9.80;72.70
52034;DHT22;38045;52.988;6.536;2023-12-29T11:00:31;9.80;72.80
52034;DHT22;38045;52.988;6.536;2023-12-29T11:02:58;9.80;72.80
52034;DHT22;38045;52.988;6.536;2023-12-29T11:05:25;10.00;71.70
52034;DHT22;38045;52.988;6.536;2023-12-29T11:07:53;10.00;71.10
52034;DHT22;38045;52.988;6.536;2023-12-29T11:10:20;10.00;70.80
52034;DHT22;38045;52.988;6.536;2023-12-29T11:12:47;10.00;70.70
52034;DHT22;38045;52.988;6.536;2023-12-29T11:15:14;10.00;70.60
52034;DHT22;38045;52.988;6.536;2023-12-29T11:17:42;10.10;69.80
52034;DHT22;38045;52.988;6.536;2023-12-29T11:20:17;10.10;69.20
52034;DHT22;38045;52.988;6.536;2023-12-29T11:22:46;10.10;69.50
52034;DHT22;38045;52.988;6.536;2023-12-29T11:25:12;10.00;66.70
52034;DHT22;38045;52.988;6.536;2023-12-29T11:27:39;10.00;66.10
52034;DHT22;38045;52.988;6.536;2023-12-29T11:30:05;10.00;66.90
52034;DHT22;38045;52.988;6.536;2023-12-29T11:33:02;9.90;66.40
52034;DHT22;38045;52.988;6.536;2023-12-29T11:35:45;9.80;66.00
52034;DHT22;38045;52.988;6.536;2023-12-29T11:38:48;9.80;66.30
52034;DHT22;38045;52.988;6.536;2023-12-29T11:41:42;9.80;65.90
52034;DHT22;38045;52.988;6.536;2023-12-29T11:44:12;9.70;66.80
52034;DHT22;38045;52.988;6.536;2023-12-29T11:46:43;9.70;67.20
52034;DHT22;38045;52.988;6.536;2023-12-29T11:49:09;9.60;67.40
52034;DHT22;38045;52.988;6.536;2023-12-29T11:51:39;9.60;67.50
52034;DHT22;38045;52.988;6.536;2023-12-29T11:54:06;9.60;67.10
52034;DHT22;38045;52.988;6.536;2023-12-29T11:56:39;9.50;67.40
52034;DHT22;38045;52.988;6.536;2023-12-29T11:59:16;9.50;67.70
52034;DHT22;38045;52.988;6.536;2023-12-29T12:01:43;9.40;68.10
52034;DHT22;38045;52.988;6.536;2023-12-29T12:04:41;9.40;68.30
52034;DHT22;38045;52.988;6.536;2023-12-29T12:07:16;9.40;68.40
52034;DHT22;38045;52.988;6.536;2023-12-29T12:09:42;9.30;68.20
52034;DHT22;38045;52.988;6.536;2023-12-29T12:12:10;9.30;68.10
52034;DHT22;38045;52.988;6.536;2023-12-29T12:17:10;9.30;67.50
52034;DHT22;38045;52.988;6.536;2023-12-29T12:19:36;9.40;67.10
52034;DHT22;38045;52.988;6.536;2023-12-29T12:22:02;9.40;66.70
52034;DHT22;38045;52.988;6.536;2023-12-29T12:24:28;9.40;67.30
52034;DHT22;38045;52.988;6.536;2023-12-29T12:26:57;9.40;67.20
52034;DHT22;38045;52.988;6.536;2023-12-29T12:29:23;9.40;67.00
52034;DHT22;38045;52.988;6.536;2023-12-29T12:31:55;9.40;66.90
52034;DHT22;38045;52.988;6.536;2023-12-29T12:34:22;9.40;67.50
52034;DHT22;38045;52.988;6.536;2023-12-29T12:36:51;9.40;67.10
52034;DHT22;38045;52.988;6.536;2023-12-29T12:39:17;9.40;67.20
52034;DHT22;38045;52.988;6.536;2023-12-29T12:41:44;9.40;67.40
52034;DHT22;38045;52.988;6.536;2023-12-29T12:44:11;9.50;67.50
52034;DHT22;38045;52.988;6.536;2023-12-29T12:46:57;9.40;67.50
52034;DHT22;38045;52.988;6.536;2023-12-29T12:49:24;9.40;67.80
52034;DHT22;38045;52.988;6.536;2023-12-29T12:51:50;9.40;68.00
52034;DHT22;38045;52.988;6.536;2023-12-29T12:54:18;9.40;68.00
52034;DHT22;38045;52.988;6.536;2023-12-29T12:56:45;9.60;67.70
52034;DHT22;38045;52.988;6.536;2023-12-29T12:59:12;9.70;67.30
52034;DHT22;38045;52.988;6.536;2023-12-29T13:01:38;9.60;67.20
52034;DHT22;38045;52.988;6.536;2023-12-29T13:04:05;9.60;67.20
52034;DHT22;38045;52.988;6.536;2023-12-29T13:06:32;9.60;67.10
52034;DHT22;38045;52.988;6.536;2023-12-29T13:09:00;9.80;67.10
52034;DHT22;38045;52.988;6.536;2023-12-29T13:11:27;10.00;65.30
52034;DHT22;38045;52.988;6.536;2023-12-29T13:13:53;9.90;65.60
52034;DHT22;38045;52.988;6.536;2023-12-29T13:16:32;9.80;65.00
52034;DHT22;38045;52.988;6.536;2023-12-29T13:19:18;9.70;65.90
52034;DHT22;38045;52.988;6.536;2023-12-29T13:21:48;9.60;64.40
52034;DHT22;38045;52.988;6.536;2023-12-29T13:24:14;9.40;64.00
52034;DHT22;38045;52.988;6.536;2023-12-29T13:26:47;9.40;64.00
52034;DHT22;38045;52.988;6.536;2023-12-29T13:29:19;9.40;63.90
52034;DHT22;38045;52.988;6.536;2023-12-29T13:31:47;9.30;64.10
52034;DHT22;38045;52.988;6.536;2023-12-29T13:34:23;9.20;64.30
52034;DHT22;38045;52.988;6.536;2023-12-29T13:37:24;9.20;64.20
52034;DHT22;38045;52.988;6.536;2023-12-29T13:39:52;9.20;64.40
52034;DHT22;38045;52.988;6.536;2023-12-29T13:42:19;9.10;64.30
52034;DHT22;38045;52.988;6.536;2023-12-29T13:44:46;9.00;64.60
52034;DHT22;38045;52.988;6.536;2023-12-29T13:47:13;9.00;65.10
52034;DHT22;38045;52.988;6.536;2023-12-29T13:49:39;8.90;65.20
52034;DHT22;38045;52.988;6.536;2023-12-29T13:52:05;8.90;65.20
52034;DHT22;38045;52.988;6.536;2023-12-29T13:54:40;8.90;65.30
52034;DHT22;38045;52.988;6.536;2023-12-29T13:57:07;8.90;65.30
52034;DHT22;38045;52.988;6.536;2023-12-29T13:59:32;8.90;65.30
52034;DHT22;38045;52.988;6.536;2023-12-29T14:01:59;8.80;65.10
52034;DHT22;38045;52.988;6.536;2023-12-29T14:04:28;8.80;64.80
52034;DHT22;38045;52.988;6.536;2023-12-29T14:06:59;8.80;65.00
52034;DHT22;38045;52.988;6.536;2023-12-29T14:09:26;8.80;64.80
52034;DHT22;38045;52.988;6.536;2023-12-29T14:11:52;8.90;64.40
52034;DHT22;38045;52.988;6.536;2023-12-29T14:14:22;8.80;64.40
52034;DHT22;38045;52.988;6.536;2023-12-29T14:16:50;8.80;64.20
52034;DHT22;38045;52.988;6.536;2023-12-29T14:19:16;8.80;63.90
52034;DHT22;38045;52.988;6.536;2023-12-29T14:21:42;8.80;64.30
52034;DHT22;38045;52.988;6.536;2023-12-29T14:24:09;8.80;64.00
52034;DHT22;38045;52.988;6.536;2023-12-29T14:26:39;8.80;64.10
52034;DHT22;38045;52.988;6.536;2023-12-29T14:29:12;8.80;64.20
52034;DHT22;38045;52.988;6.536;2023-12-29T14:31:42;8.80;64.20
52034;DHT22;38045;52.988;6.536;2023-12-29T14:34:09;8.80;64.30
52034;DHT22;38045;52.988;6.536;2023-12-29T14:36:36;8.70;64.30
52034;DHT22;38045;52.988;6.536;2023-12-29T14:39:03;8.70;64.10
52034;DHT22;38045;52.988;6.536;2023-12-29T14:41:29;8.60;64.40
52034;DHT22;38045;52.988;6.536;2023-12-29T14:43:55;8.60;64.50
52034;DHT22;38045;52.988;6.536;2023-12-29T14:46:21;8.60;64.70
52034;DHT22;38045;52.988;6.536;2023-12-29T14:48:47;8.60;64.80
52034;DHT22;38045;52.988;6.536;2023-12-29T14:51:13;8.60;64.80
52034;DHT22;38045;52.988;6.536;2023-12-29T14:53:40;8.60;65.00
52034;DHT22;38045;52.988;6.536;2023-12-29T14:56:08;8.60;65.00
52034;DHT22;38045;52.988;6.536;2023-12-29T14:58:33;8.60;65.10
52034;DHT22;38045;52.988;6.536;2023-12-29T15:01:01;8.60;65.10
52034;DHT22;38045;52.988;6.536;2023-12-29T15:03:28;8.60;65.10
52034;DHT22;38045;52.988;6.536;2023-12-29T15:05:53;8.60;65.20
52034;DHT22;38045;52.988;6.536;2023-12-29T15:08:19;8.60;65.20
52034;DHT22;38045;52.988;6.536;2023-12-29T15:10:45;8.60;65.10
52034;DHT22;38045;52.988;6.536;2023-12-29T15:13:10;8.60;65.30
52034;DHT22;38045;52.988;6.536;2023-12-29T15:15:36;8.60;65.40
52034;DHT22;38045;52.988;6.536;2023-12-29T15:18:03;8.60;65.50
52034;DHT22;38045;52.988;6.536;2023-12-29T15:20:28;8.50;65.70
52034;DHT22;38045;52.988;6.536;2023-12-29T15:22:54;8.60;65.50
52034;DHT22;38045;52.988;6.536;2023-12-29T15:25:24;8.60;65.70
52034;DHT22;38045;52.988;6.536;2023-12-29T15:27:51;8.50;65.80
52034;DHT22;38045;52.988;6.536;2023-12-29T15:30:17;8.50;65.90
52034;DHT22;38045;52.988;6.536;2023-12-29T15:32:43;8.50;66.00
52034;DHT22;38045;52.988;6.536;2023-12-29T15:35:09;8.50;66.10
52034;DHT22;38045;52.988;6.536;2023-12-29T15:37:34;8.50;66.30
52034;DHT22;38045;52.988;6.536;2023-12-29T15:40:01;8.50;66.50
52034;DHT22;38045;52.988;6.536;2023-12-29T15:42:26;8.50;66.60
52034;DHT22;38045;52.988;6.536;2023-12-29T15:44:52;8.50;66.80
52034;DHT22;38045;52.988;6.536;2023-12-29T15:47:18;8.50;66.80
52034;DHT22;38045;52.988;6.536;2023-12-29T15:49:43;8.50;67.10